sensor_id;sensor_type;location;lat;lon;timestamp;P1;durP1;ratioP1;P2;durP2;ratioP2
11078;SDS011;5592;49.234;7.268;2023-05-09T00:00:04;23.63;;;15.83;;
11078;SDS011;5592;49.234;7.268;2023-05-09T00:02:34;19.00;;;14.47;;
11078;SDS011;5592;49.234;7.268;2023-05-09T00:05:01;24.63;;;15.67;;
11078;SDS011;5592;49.234;7.268;2023-05-09T00:07:28;20.07;;;15.47;;
11078;SDS011;5592;49.234;7.268;2023-05-09T00:09:53;19.40;;;14.27;;
11078;SDS011;5592;49.234;7.268;2023-05-09T00:12:19;20.07;;;14.57;;
11078;SDS011;5592;49.234;7.268;2023-05-09T00:14:45;20.80;;;14.27;;
11078;SDS011;5592;49.234;7.268;2023-05-09T00:17:14;20.73;;;14.40;;
11078;SDS011;5592;49.234;7.268;2023-05-09T00:19:40;22.93;;;15.67;;
11078;SDS011;5592;49.234;7.268;2023-05-09T00:22:07;18.93;;;13.83;;
11078;SDS011;5592;49.234;7.268;2023-05-09T00:24:33;20.60;;;14.83;;
11078;SDS011;5592;49.234;7.268;2023-05-09T00:26:59;22.40;;;15.50;;
11078;SDS011;5592;49.234;7.268;2023-05-09T00:29:25;33.60;;;15.17;;
11078;SDS011;5592;49.234;7.268;2023-05-09T00:31:51;24.50;;;13.93;;
11078;SDS011;5592;49.234;7.268;2023-05-09T00:34:16;20.90;;;14.53;;
11078;SDS011;5592;49.234;7.268;2023-05-09T00:36:42;22.47;;;16.17;;
11078;SDS011;5592;49.234;7.268;2023-05-09T00:39:07;21.13;;;15.13;;
11078;SDS011;5592;49.234;7.268;2023-05-09T00:41:33;25.10;;;14.97;;
11078;SDS011;5592;49.234;7.268;2023-05-09T00:43:59;23.20;;;14.47;;
11078;SDS011;5592;49.234;7.268;2023-05-09T00:46:24;17.97;;;13.93;;
11078;SDS011;5592;49.234;7.268;2023-05-09T00:48:50;24.40;;;15.17;;
11078;SDS011;5592;49.234;7.268;2023-05-09T00:51:16;22.67;;;16.20;;
11078;SDS011;5592;49.234;7.268;2023-05-09T00:53:42;16.90;;;13.20;;
11078;SDS011;5592;49.234;7.268;2023-05-09T00:56:09;21.30;;;15.70;;
11078;SDS011;5592;49.234;7.268;2023-05-09T00:58:36;21.57;;;15.20;;
11078;SDS011;5592;49.234;7.268;2023-05-09T01:01:02;18.97;;;13.63;;
11078;SDS011;5592;49.234;7.268;2023-05-09T01:03:28;19.33;;;14.53;;
11078;SDS011;5592;49.234;7.268;2023-05-09T01:05:56;19.40;;;15.20;;
11078;SDS011;5592;49.234;7.268;2023-05-09T01:11:19;27.00;;;16.70;;
11078;SDS011;5592;49.234;7.268;2023-05-09T01:16:25;29.13;;;17.33;;
11078;SDS011;5592;49.234;7.268;2023-05-09T01:19:07;25.53;;;16.60;;
11078;SDS011;5592;49.234;7.268;2023-05-09T01:21:40;21.83;;;14.83;;
11078;SDS011;5592;49.234;7.268;2023-05-09T01:24:33;20.93;;;14.83;;
11078;SDS011;5592;49.234;7.268;2023-05-09T01:29:54;30.57;;;14.30;;
11078;SDS011;5592;49.234;7.268;2023-05-09T01:32:22;40.93;;;14.13;;
11078;SDS011;5592;49.234;7.268;2023-05-09T01:34:54;49.00;;;17.07;;
11078;SDS011;5592;49.234;7.268;2023-05-09T01:37:23;43.00;;;17.70;;
11078;SDS011;5592;49.234;7.268;2023-05-09T01:40:14;57.93;;;18.53;;
11078;SDS011;5592;49.234;7.268;2023-05-09T01:42:43;40.07;;;17.27;;
11078;SDS011;5592;49.234;7.268;2023-05-09T01:45:12;40.23;;;17.77;;
11078;SDS011;5592;49.234;7.268;2023-05-09T01:47:40;36.90;;;20.10;;
11078;SDS011;5592;49.234;7.268;2023-05-09T01:50:08;42.47;;;19.33;;
11078;SDS011;5592;49.234;7.268;2023-05-09T01:52:35;68.43;;;19.93;;
11078;SDS011;5592;49.234;7.268;2023-05-09T01:55:02;40.17;;;19.23;;
11078;SDS011;5592;49.234;7.268;2023-05-09T01:57:29;33.70;;;18.60;;
11078;SDS011;5592;49.234;7.268;2023-05-09T01:59:56;27.83;;;16.33;;
11078;SDS011;5592;49.234;7.268;2023-05-09T02:02:23;51.20;;;21.53;;
11078;SDS011;5592;49.234;7.268;2023-05-09T02:04:50;66.03;;;20.70;;
11078;SDS011;5592;49.234;7.268;2023-05-09T02:07:19;41.80;;;20.60;;
11078;SDS011;5592;49.234;7.268;2023-05-09T02:09:45;32.87;;;18.27;;
11078;SDS011;5592;49.234;7.268;2023-05-09T02:12:13;79.73;;;22.87;;
11078;SDS011;5592;49.234;7.268;2023-05-09T02:14:38;148.90;;;27.47;;
11078;SDS011;5592;49.234;7.268;2023-05-09T02:17:04;53.83;;;22.53;;
11078;SDS011;5592;49.234;7.268;2023-05-09T02:19:34;48.83;;;21.30;;
11078;SDS011;5592;49.234;7.268;2023-05-09T02:22:00;40.73;;;19.90;;
11078;SDS011;5592;49.234;7.268;2023-05-09T02:24:26;72.70;;;20.63;;
11078;SDS011;5592;49.234;7.268;2023-05-09T02:26:52;59.00;;;20.97;;
11078;SDS011;5592;49.234;7.268;2023-05-09T02:29:19;70.00;;;23.97;;
11078;SDS011;5592;49.234;7.268;2023-05-09T02:31:48;70.00;;;21.37;;
11078;SDS011;5592;49.234;7.268;2023-05-09T02:34:15;36.40;;;19.10;;
11078;SDS011;5592;49.234;7.268;2023-05-09T02:36:41;103.70;;;21.23;;
11078;SDS011;5592;49.234;7.268;2023-05-09T02:39:07;43.00;;;19.93;;
11078;SDS011;5592;49.234;7.268;2023-05-09T02:41:33;180.97;;;26.00;;
11078;SDS011;5592;49.234;7.268;2023-05-09T02:43:58;46.37;;;20.20;;
11078;SDS011;5592;49.234;7.268;2023-05-09T02:46:24;86.03;;;20.10;;
11078;SDS011;5592;49.234;7.268;2023-05-09T02:48:50;43.73;;;19.73;;
11078;SDS011;5592;49.234;7.268;2023-05-09T02:51:16;65.40;;;21.83;;
11078;SDS011;5592;49.234;7.268;2023-05-09T02:53:42;66.77;;;20.63;;
11078;SDS011;5592;49.234;7.268;2023-05-09T02:56:07;66.93;;;22.43;;
11078;SDS011;5592;49.234;7.268;2023-05-09T02:58:34;119.83;;;23.53;;
11078;SDS011;5592;49.234;7.268;2023-05-09T03:01:00;56.23;;;20.83;;
11078;SDS011;5592;49.234;7.268;2023-05-09T03:03:25;134.33;;;26.40;;
11078;SDS011;5592;49.234;7.268;2023-05-09T03:05:51;51.43;;;19.97;;
11078;SDS011;5592;49.234;7.268;2023-05-09T03:08:16;34.30;;;20.00;;
11078;SDS011;5592;49.234;7.268;2023-05-09T03:10:42;79.33;;;22.10;;
11078;SDS011;5592;49.234;7.268;2023-05-09T03:13:07;39.47;;;19.10;;
11078;SDS011;5592;49.234;7.268;2023-05-09T03:15:33;67.47;;;21.53;;
11078;SDS011;5592;49.234;7.268;2023-05-09T03:17:58;64.97;;;21.80;;
11078;SDS011;5592;49.234;7.268;2023-05-09T03:20:24;104.27;;;23.53;;
11078;SDS011;5592;49.234;7.268;2023-05-09T03:22:50;56.87;;;21.20;;
11078;SDS011;5592;49.234;7.268;2023-05-09T03:25:16;113.70;;;22.27;;
11078;SDS011;5592;49.234;7.268;2023-05-09T03:27:44;41.87;;;20.57;;
11078;SDS011;5592;49.234;7.268;2023-05-09T03:30:10;27.73;;;19.17;;
11078;SDS011;5592;49.234;7.268;2023-05-09T03:32:36;61.73;;;22.23;;
11078;SDS011;5592;49.234;7.268;2023-05-09T03:35:02;56.97;;;22.40;;
11078;SDS011;5592;49.234;7.268;2023-05-09T03:37:28;74.47;;;22.80;;
11078;SDS011;5592;49.234;7.268;2023-05-09T03:39:57;87.37;;;20.40;;
11078;SDS011;5592;49.234;7.268;2023-05-09T03:42:22;80.40;;;24.50;;
11078;SDS011;5592;49.234;7.268;2023-05-09T03:44:47;51.00;;;19.37;;
11078;SDS011;5592;49.234;7.268;2023-05-09T03:47:13;140.10;;;23.13;;
11078;SDS011;5592;49.234;7.268;2023-05-09T03:49:39;40.77;;;19.27;;
11078;SDS011;5592;49.234;7.268;2023-05-09T03:52:05;55.33;;;19.37;;
11078;SDS011;5592;49.234;7.268;2023-05-09T03:54:31;86.93;;;20.57;;
11078;SDS011;5592;49.234;7.268;2023-05-09T03:56:56;40.37;;;21.20;;
11078;SDS011;5592;49.234;7.268;2023-05-09T03:59:22;46.93;;;19.40;;
11078;SDS011;5592;49.234;7.268;2023-05-09T04:01:47;58.27;;;19.70;;
11078;SDS011;5592;49.234;7.268;2023-05-09T04:04:13;32.20;;;19.10;;
11078;SDS011;5592;49.234;7.268;2023-05-09T04:06:38;34.23;;;19.40;;
11078;SDS011;5592;49.234;7.268;2023-05-09T04:09:04;32.27;;;19.93;;
11078;SDS011;5592;49.234;7.268;2023-05-09T04:11:29;27.33;;;18.23;;
11078;SDS011;5592;49.234;7.268;2023-05-09T04:13:55;31.20;;;19.70;;
11078;SDS011;5592;49.234;7.268;2023-05-09T04:16:20;42.43;;;20.00;;
11078;SDS011;5592;49.234;7.268;2023-05-09T04:18:46;31.33;;;20.23;;
11078;SDS011;5592;49.234;7.268;2023-05-09T04:21:11;26.43;;;18.23;;
11078;SDS011;5592;49.234;7.268;2023-05-09T04:23:37;33.23;;;18.73;;
11078;SDS011;5592;49.234;7.268;2023-05-09T04:26:03;26.87;;;20.70;;
11078;SDS011;5592;49.234;7.268;2023-05-09T04:28:28;30.60;;;19.70;;
11078;SDS011;5592;49.234;7.268;2023-05-09T04:30:54;32.63;;;19.13;;
11078;SDS011;5592;49.234;7.268;2023-05-09T04:33:20;27.03;;;19.80;;
11078;SDS011;5592;49.234;7.268;2023-05-09T04:35:46;26.23;;;18.60;;
11078;SDS011;5592;49.234;7.268;2023-05-09T04:38:12;27.33;;;20.73;;
11078;SDS011;5592;49.234;7.268;2023-05-09T04:40:38;24.17;;;18.57;;
11078;SDS011;5592;49.234;7.268;2023-05-09T04:43:03;26.23;;;18.97;;
11078;SDS011;5592;49.234;7.268;2023-05-09T04:45:30;26.03;;;18.20;;
11078;SDS011;5592;49.234;7.268;2023-05-09T04:47:55;28.77;;;19.00;;
11078;SDS011;5592;49.234;7.268;2023-05-09T04:50:21;24.23;;;18.20;;
11078;SDS011;5592;49.234;7.268;2023-05-09T04:52:46;22.47;;;17.37;;
11078;SDS011;5592;49.234;7.268;2023-05-09T04:55:12;25.50;;;18.30;;
11078;SDS011;5592;49.234;7.268;2023-05-09T04:57:37;22.40;;;16.83;;
11078;SDS011;5592;49.234;7.268;2023-05-09T05:00:03;25.07;;;18.63;;
11078;SDS011;5592;49.234;7.268;2023-05-09T05:02:31;21.37;;;17.13;;
11078;SDS011;5592;49.234;7.268;2023-05-09T05:04:57;22.90;;;17.30;;
11078;SDS011;5592;49.234;7.268;2023-05-09T05:07:22;21.40;;;17.17;;
11078;SDS011;5592;49.234;7.268;2023-05-09T05:09:48;22.43;;;17.40;;
11078;SDS011;5592;49.234;7.268;2023-05-09T05:12:13;19.93;;;15.13;;
11078;SDS011;5592;49.234;7.268;2023-05-09T05:14:39;21.20;;;16.80;;
11078;SDS011;5592;49.234;7.268;2023-05-09T05:17:04;22.03;;;15.97;;
11078;SDS011;5592;49.234;7.268;2023-05-09T05:19:30;16.93;;;15.13;;
11078;SDS011;5592;49.234;7.268;2023-05-09T05:21:56;20.23;;;16.20;;
11078;SDS011;5592;49.234;7.268;2023-05-09T05:24:21;20.57;;;16.70;;
11078;SDS011;5592;49.234;7.268;2023-05-09T05:26:47;16.90;;;14.73;;
11078;SDS011;5592;49.234;7.268;2023-05-09T05:29:12;22.37;;;16.80;;
11078;SDS011;5592;49.234;7.268;2023-05-09T05:31:38;17.80;;;15.80;;
11078;SDS011;5592;49.234;7.268;2023-05-09T05:34:03;17.33;;;15.40;;
11078;SDS011;5592;49.234;7.268;2023-05-09T05:36:29;15.70;;;14.00;;
11078;SDS011;5592;49.234;7.268;2023-05-09T05:38:56;17.90;;;15.37;;
11078;SDS011;5592;49.234;7.268;2023-05-09T05:41:21;17.30;;;14.77;;
11078;SDS011;5592;49.234;7.268;2023-05-09T05:43:47;21.83;;;15.43;;
11078;SDS011;5592;49.234;7.268;2023-05-09T05:46:12;18.03;;;14.80;;
11078;SDS011;5592;49.234;7.268;2023-05-09T05:48:38;18.27;;;14.50;;
11078;SDS011;5592;49.234;7.268;2023-05-09T05:51:04;17.10;;;15.10;;
11078;SDS011;5592;49.234;7.268;2023-05-09T05:53:29;18.07;;;14.90;;
11078;SDS011;5592;49.234;7.268;2023-05-09T05:55:55;16.67;;;14.10;;
11078;SDS011;5592;49.234;7.268;2023-05-09T05:58:20;16.07;;;14.30;;
11078;SDS011;5592;49.234;7.268;2023-05-09T06:00:46;16.80;;;14.60;;
11078;SDS011;5592;49.234;7.268;2023-05-09T06:03:11;17.90;;;15.60;;
11078;SDS011;5592;49.234;7.268;2023-05-09T06:05:44;17.87;;;15.30;;
11078;SDS011;5592;49.234;7.268;2023-05-09T06:08:11;14.90;;;13.30;;
11078;SDS011;5592;49.234;7.268;2023-05-09T06:10:37;15.53;;;13.80;;
11078;SDS011;5592;49.234;7.268;2023-05-09T06:13:02;21.70;;;13.83;;
11078;SDS011;5592;49.234;7.268;2023-05-09T06:15:31;15.13;;;13.53;;
11078;SDS011;5592;49.234;7.268;2023-05-09T06:17:56;15.40;;;13.80;;
11078;SDS011;5592;49.234;7.268;2023-05-09T06:20:24;14.63;;;13.20;;
11078;SDS011;5592;49.234;7.268;2023-05-09T06:22:51;14.43;;;11.97;;
11078;SDS011;5592;49.234;7.268;2023-05-09T06:25:16;15.77;;;12.00;;
11078;SDS011;5592;49.234;7.268;2023-05-09T06:27:42;13.37;;;11.97;;
11078;SDS011;5592;49.234;7.268;2023-05-09T06:30:08;15.53;;;12.07;;
11078;SDS011;5592;49.234;7.268;2023-05-09T06:32:34;12.27;;;11.00;;
11078;SDS011;5592;49.234;7.268;2023-05-09T06:35:00;14.83;;;12.03;;
11078;SDS011;5592;49.234;7.268;2023-05-09T06:37:25;14.03;;;10.57;;
11078;SDS011;5592;49.234;7.268;2023-05-09T06:39:51;12.00;;;10.70;;
11078;SDS011;5592;49.234;7.268;2023-05-09T06:42:17;11.30;;;10.20;;
11078;SDS011;5592;49.234;7.268;2023-05-09T06:44:42;10.70;;;9.70;;
11078;SDS011;5592;49.234;7.268;2023-05-09T06:47:09;11.30;;;10.07;;
11078;SDS011;5592;49.234;7.268;2023-05-09T06:49:35;10.67;;;9.57;;
11078;SDS011;5592;49.234;7.268;2023-05-09T06:52:00;13.30;;;9.17;;
11078;SDS011;5592;49.234;7.268;2023-05-09T06:54:27;10.67;;;8.60;;
11078;SDS011;5592;49.234;7.268;2023-05-09T06:56:53;9.67;;;8.77;;
11078;SDS011;5592;49.234;7.268;2023-05-09T06:59:18;10.30;;;9.40;;
11078;SDS011;5592;49.234;7.268;2023-05-09T07:01:44;8.63;;;7.83;;
11078;SDS011;5592;49.234;7.268;2023-05-09T07:04:11;8.73;;;6.33;;
11078;SDS011;5592;49.234;7.268;2023-05-09T07:06:38;7.47;;;6.43;;
11078;SDS011;5592;49.234;7.268;2023-05-09T07:09:11;8.10;;;6.50;;
11078;SDS011;5592;49.234;7.268;2023-05-09T07:11:42;8.20;;;6.33;;
11078;SDS011;5592;49.234;7.268;2023-05-09T07:14:10;7.17;;;6.47;;
11078;SDS011;5592;49.234;7.268;2023-05-09T07:16:42;6.70;;;5.80;;
11078;SDS011;5592;49.234;7.268;2023-05-09T07:19:07;6.20;;;5.60;;
11078;SDS011;5592;49.234;7.268;2023-05-09T07:21:33;6.57;;;5.83;;
11078;SDS011;5592;49.234;7.268;2023-05-09T07:23:59;5.13;;;4.63;;
11078;SDS011;5592;49.234;7.268;2023-05-09T07:26:25;5.63;;;5.03;;
11078;SDS011;5592;49.234;7.268;2023-05-09T07:28:52;5.50;;;5.00;;
11078;SDS011;5592;49.234;7.268;2023-05-09T07:31:17;6.93;;;5.07;;
11078;SDS011;5592;49.234;7.268;2023-05-09T07:33:43;6.17;;;5.13;;
11078;SDS011;5592;49.234;7.268;2023-05-09T07:36:08;7.90;;;5.40;;
11078;SDS011;5592;49.234;7.268;2023-05-09T07:38:37;7.60;;;5.03;;
11078;SDS011;5592;49.234;7.268;2023-05-09T07:41:03;6.33;;;4.90;;
11078;SDS011;5592;49.234;7.268;2023-05-09T07:43:30;5.60;;;4.90;;
11078;SDS011;5592;49.234;7.268;2023-05-09T07:45:56;8.80;;;4.57;;
11078;SDS011;5592;49.234;7.268;2023-05-09T07:48:23;4.70;;;4.30;;
11078;SDS011;5592;49.234;7.268;2023-05-09T07:50:48;4.60;;;4.10;;
11078;SDS011;5592;49.234;7.268;2023-05-09T07:53:14;5.00;;;4.43;;
11078;SDS011;5592;49.234;7.268;2023-05-09T07:55:40;4.33;;;3.97;;
11078;SDS011;5592;49.234;7.268;2023-05-09T07:58:06;4.20;;;3.80;;
11078;SDS011;5592;49.234;7.268;2023-05-09T08:00:36;3.77;;;3.40;;
11078;SDS011;5592;49.234;7.268;2023-05-09T08:03:01;6.33;;;4.23;;
11078;SDS011;5592;49.234;7.268;2023-05-09T08:05:27;3.90;;;3.20;;
11078;SDS011;5592;49.234;7.268;2023-05-09T08:07:53;6.10;;;3.80;;
11078;SDS011;5592;49.234;7.268;2023-05-09T08:10:20;8.00;;;5.70;;
11078;SDS011;5592;49.234;7.268;2023-05-09T08:12:47;6.70;;;6.10;;
11078;SDS011;5592;49.234;7.268;2023-05-09T08:15:12;6.63;;;6.03;;
11078;SDS011;5592;49.234;7.268;2023-05-09T08:17:38;7.87;;;5.80;;
11078;SDS011;5592;49.234;7.268;2023-05-09T08:20:04;7.03;;;6.43;;
11078;SDS011;5592;49.234;7.268;2023-05-09T08:22:32;6.57;;;5.50;;
11078;SDS011;5592;49.234;7.268;2023-05-09T08:24:58;5.37;;;4.87;;
11078;SDS011;5592;49.234;7.268;2023-05-09T08:27:23;7.43;;;5.30;;
11078;SDS011;5592;49.234;7.268;2023-05-09T08:29:50;5.70;;;5.00;;
11078;SDS011;5592;49.234;7.268;2023-05-09T08:32:15;6.10;;;5.47;;
11078;SDS011;5592;49.234;7.268;2023-05-09T08:34:43;5.33;;;4.83;;
11078;SDS011;5592;49.234;7.268;2023-05-09T08:37:09;7.93;;;5.40;;
11078;SDS011;5592;49.234;7.268;2023-05-09T08:39:36;6.27;;;5.60;;
11078;SDS011;5592;49.234;7.268;2023-05-09T08:42:02;5.70;;;5.20;;
11078;SDS011;5592;49.234;7.268;2023-05-09T08:44:28;8.17;;;4.70;;
11078;SDS011;5592;49.234;7.268;2023-05-09T08:46:56;6.63;;;4.80;;
11078;SDS011;5592;49.234;7.268;2023-05-09T08:49:23;5.10;;;4.70;;
11078;SDS011;5592;49.234;7.268;2023-05-09T08:51:50;4.77;;;4.37;;
11078;SDS011;5592;49.234;7.268;2023-05-09T08:54:16;5.50;;;5.00;;
11078;SDS011;5592;49.234;7.268;2023-05-09T08:56:45;4.17;;;3.87;;
11078;SDS011;5592;49.234;7.268;2023-05-09T08:59:11;4.30;;;3.90;;
11078;SDS011;5592;49.234;7.268;2023-05-09T09:01:39;4.77;;;4.23;;
11078;SDS011;5592;49.234;7.268;2023-05-09T09:04:06;6.90;;;4.03;;
11078;SDS011;5592;49.234;7.268;2023-05-09T09:06:33;4.00;;;3.60;;
11078;SDS011;5592;49.234;7.268;2023-05-09T09:08:59;4.20;;;3.80;;
11078;SDS011;5592;49.234;7.268;2023-05-09T09:11:28;4.30;;;3.90;;
11078;SDS011;5592;49.234;7.268;2023-05-09T09:14:06;6.70;;;5.47;;
11078;SDS011;5592;49.234;7.268;2023-05-09T09:16:40;4.60;;;4.20;;
11078;SDS011;5592;49.234;7.268;2023-05-09T09:19:12;3.80;;;3.50;;
11078;SDS011;5592;49.234;7.268;2023-05-09T09:21:40;4.80;;;3.73;;
11078;SDS011;5592;49.234;7.268;2023-05-09T09:24:08;4.43;;;4.03;;
11078;SDS011;5592;49.234;7.268;2023-05-09T09:26:46;4.30;;;3.90;;
11078;SDS011;5592;49.234;7.268;2023-05-09T09:29:13;4.90;;;4.23;;
11078;SDS011;5592;49.234;7.268;2023-05-09T09:31:51;3.93;;;3.50;;
11078;SDS011;5592;49.234;7.268;2023-05-09T09:34:21;4.13;;;3.73;;
11078;SDS011;5592;49.234;7.268;2023-05-09T09:36:48;3.60;;;3.30;;
11078;SDS011;5592;49.234;7.268;2023-05-09T09:39:14;3.03;;;2.73;;
11078;SDS011;5592;49.234;7.268;2023-05-09T09:41:40;3.87;;;3.20;;
11078;SDS011;5592;49.234;7.268;2023-05-09T09:44:09;3.67;;;3.37;;
11078;SDS011;5592;49.234;7.268;2023-05-09T09:46:39;3.43;;;3.13;;
11078;SDS011;5592;49.234;7.268;2023-05-09T09:49:09;3.70;;;3.40;;
11078;SDS011;5592;49.234;7.268;2023-05-09T09:52:01;4.70;;;3.07;;
11078;SDS011;5592;49.234;7.268;2023-05-09T09:54:27;4.43;;;3.27;;
11078;SDS011;5592;49.234;7.268;2023-05-09T09:56:53;3.47;;;3.10;;
11078;SDS011;5592;49.234;7.268;2023-05-09T09:59:25;2.63;;;2.43;;
11078;SDS011;5592;49.234;7.268;2023-05-09T10:02:12;3.93;;;2.97;;
11078;SDS011;5592;49.234;7.268;2023-05-09T10:04:37;4.70;;;3.77;;
11078;SDS011;5592;49.234;7.268;2023-05-09T10:07:06;4.70;;;3.27;;
11078;SDS011;5592;49.234;7.268;2023-05-09T10:09:34;3.90;;;3.60;;
11078;SDS011;5592;49.234;7.268;2023-05-09T10:12:04;5.97;;;2.90;;
11078;SDS011;5592;49.234;7.268;2023-05-09T10:14:33;3.50;;;3.20;;
11078;SDS011;5592;49.234;7.268;2023-05-09T10:17:00;4.17;;;3.50;;
11078;SDS011;5592;49.234;7.268;2023-05-09T10:19:27;3.20;;;3.00;;
11078;SDS011;5592;49.234;7.268;2023-05-09T10:21:54;2.47;;;2.27;;
11078;SDS011;5592;49.234;7.268;2023-05-09T10:27:16;3.90;;;3.00;;
11078;SDS011;5592;49.234;7.268;2023-05-09T10:30:08;2.53;;;2.33;;
11078;SDS011;5592;49.234;7.268;2023-05-09T10:35:23;2.90;;;2.70;;
11078;SDS011;5592;49.234;7.268;2023-05-09T10:37:52;2.60;;;2.40;;
11078;SDS011;5592;49.234;7.268;2023-05-09T10:40:23;3.50;;;2.57;;
11078;SDS011;5592;49.234;7.268;2023-05-09T10:42:49;5.43;;;2.30;;
11078;SDS011;5592;49.234;7.268;2023-05-09T10:45:15;2.20;;;2.00;;
11078;SDS011;5592;49.234;7.268;2023-05-09T10:47:41;2.93;;;2.20;;
11078;SDS011;5592;49.234;7.268;2023-05-09T10:50:11;2.80;;;2.50;;
11078;SDS011;5592;49.234;7.268;2023-05-09T10:58:24;2.00;;;1.80;;
11078;SDS011;5592;49.234;7.268;2023-05-09T11:00:51;7.33;;;2.30;;
11078;SDS011;5592;49.234;7.268;2023-05-09T11:03:18;3.07;;;2.20;;
11078;SDS011;5592;49.234;7.268;2023-05-09T11:05:48;2.57;;;2.27;;
11078;SDS011;5592;49.234;7.268;2023-05-09T11:08:25;3.17;;;2.70;;
11078;SDS011;5592;49.234;7.268;2023-05-09T11:10:52;3.00;;;2.40;;
11078;SDS011;5592;49.234;7.268;2023-05-09T11:13:21;7.50;;;2.13;;
11078;SDS011;5592;49.234;7.268;2023-05-09T11:18:28;5.47;;;2.23;;
11078;SDS011;5592;49.234;7.268;2023-05-09T11:20:55;2.80;;;2.47;;
11078;SDS011;5592;49.234;7.268;2023-05-09T11:23:24;3.90;;;2.53;;
11078;SDS011;5592;49.234;7.268;2023-05-09T11:25:51;2.87;;;2.50;;
11078;SDS011;5592;49.234;7.268;2023-05-09T11:28:33;3.30;;;2.40;;
11078;SDS011;5592;49.234;7.268;2023-05-09T11:31:10;2.23;;;2.03;;
11078;SDS011;5592;49.234;7.268;2023-05-09T11:33:40;2.27;;;1.70;;
11078;SDS011;5592;49.234;7.268;2023-05-09T11:36:17;2.70;;;2.27;;
11078;SDS011;5592;49.234;7.268;2023-05-09T11:38:51;5.30;;;2.10;;
11078;SDS011;5592;49.234;7.268;2023-05-09T11:41:28;3.20;;;2.03;;
11078;SDS011;5592;49.234;7.268;2023-05-09T11:43:55;2.17;;;1.87;;
11078;SDS011;5592;49.234;7.268;2023-05-09T11:46:23;2.53;;;1.80;;
11078;SDS011;5592;49.234;7.268;2023-05-09T11:48:52;2.37;;;2.10;;
11078;SDS011;5592;49.234;7.268;2023-05-09T11:51:17;2.60;;;1.90;;
11078;SDS011;5592;49.234;7.268;2023-05-09T11:53:49;4.13;;;1.70;;
11078;SDS011;5592;49.234;7.268;2023-05-09T11:56:15;1.60;;;1.50;;
11078;SDS011;5592;49.234;7.268;2023-05-09T11:58:41;2.70;;;1.83;;
11078;SDS011;5592;49.234;7.268;2023-05-09T12:01:09;2.13;;;2.03;;
11078;SDS011;5592;49.234;7.268;2023-05-09T12:03:40;2.07;;;1.87;;
11078;SDS011;5592;49.234;7.268;2023-05-09T12:06:07;1.97;;;1.87;;
11078;SDS011;5592;49.234;7.268;2023-05-09T12:08:33;3.67;;;2.23;;
11078;SDS011;5592;49.234;7.268;2023-05-09T12:11:09;3.40;;;2.10;;
11078;SDS011;5592;49.234;7.268;2023-05-09T12:13:42;2.80;;;1.87;;
11078;SDS011;5592;49.234;7.268;2023-05-09T12:16:12;1.83;;;1.73;;
11078;SDS011;5592;49.234;7.268;2023-05-09T12:18:42;3.20;;;2.50;;
11078;SDS011;5592;49.234;7.268;2023-05-09T12:21:15;2.63;;;2.30;;
11078;SDS011;5592;49.234;7.268;2023-05-09T12:23:42;2.30;;;2.10;;
11078;SDS011;5592;49.234;7.268;2023-05-09T12:26:08;2.30;;;2.10;;
11078;SDS011;5592;49.234;7.268;2023-05-09T12:28:35;3.37;;;2.67;;
11078;SDS011;5592;49.234;7.268;2023-05-09T12:31:00;2.77;;;2.47;;
11078;SDS011;5592;49.234;7.268;2023-05-09T12:33:27;3.83;;;2.20;;
11078;SDS011;5592;49.234;7.268;2023-05-09T12:36:00;3.03;;;2.37;;
11078;SDS011;5592;49.234;7.268;2023-05-09T12:38:30;3.23;;;2.27;;
11078;SDS011;5592;49.234;7.268;2023-05-09T12:41:04;3.87;;;2.53;;
11078;SDS011;5592;49.234;7.268;2023-05-09T12:43:31;5.10;;;2.37;;
11078;SDS011;5592;49.234;7.268;2023-05-09T12:45:59;2.13;;;1.97;;
11078;SDS011;5592;49.234;7.268;2023-05-09T12:48:26;3.23;;;2.20;;
11078;SDS011;5592;49.234;7.268;2023-05-09T12:50:53;2.93;;;2.20;;
11078;SDS011;5592;49.234;7.268;2023-05-09T12:53:25;3.90;;;2.37;;
11078;SDS011;5592;49.234;7.268;2023-05-09T12:55:55;4.33;;;2.70;;
11078;SDS011;5592;49.234;7.268;2023-05-09T12:58:29;2.90;;;2.60;;
11078;SDS011;5592;49.234;7.268;2023-05-09T13:00:55;2.20;;;2.00;;
11078;SDS011;5592;49.234;7.268;2023-05-09T13:03:25;4.67;;;2.20;;
11078;SDS011;5592;49.234;7.268;2023-05-09T13:05:57;9.93;;;2.77;;
11078;SDS011;5592;49.234;7.268;2023-05-09T13:08:26;4.20;;;2.60;;
11078;SDS011;5592;49.234;7.268;2023-05-09T13:10:52;3.83;;;2.17;;
11078;SDS011;5592;49.234;7.268;2023-05-09T13:13:18;2.40;;;1.90;;
11078;SDS011;5592;49.234;7.268;2023-05-09T13:15:45;4.80;;;2.20;;
11078;SDS011;5592;49.234;7.268;2023-05-09T13:18:11;2.57;;;2.37;;
11078;SDS011;5592;49.234;7.268;2023-05-09T13:20:37;2.13;;;2.03;;
11078;SDS011;5592;49.234;7.268;2023-05-09T13:23:03;2.40;;;2.20;;
11078;SDS011;5592;49.234;7.268;2023-05-09T13:25:28;2.40;;;2.20;;
11078;SDS011;5592;49.234;7.268;2023-05-09T13:27:54;2.83;;;2.00;;
11078;SDS011;5592;49.234;7.268;2023-05-09T13:30:20;6.23;;;2.33;;
11078;SDS011;5592;49.234;7.268;2023-05-09T13:32:46;2.33;;;2.00;;
11078;SDS011;5592;49.234;7.268;2023-05-09T13:35:12;3.77;;;2.20;;
11078;SDS011;5592;49.234;7.268;2023-05-09T13:37:38;4.40;;;2.30;;
11078;SDS011;5592;49.234;7.268;2023-05-09T13:40:03;6.30;;;2.23;;
11078;SDS011;5592;49.234;7.268;2023-05-09T13:42:29;2.80;;;1.93;;
11078;SDS011;5592;49.234;7.268;2023-05-09T13:44:58;3.33;;;2.27;;
11078;SDS011;5592;49.234;7.268;2023-05-09T13:47:23;2.17;;;2.03;;
11078;SDS011;5592;49.234;7.268;2023-05-09T13:49:49;2.27;;;1.70;;
11078;SDS011;5592;49.234;7.268;2023-05-09T13:52:16;2.10;;;1.90;;
11078;SDS011;5592;49.234;7.268;2023-05-09T13:54:42;3.90;;;1.60;;
11078;SDS011;5592;49.234;7.268;2023-05-09T13:57:07;1.87;;;1.77;;
11078;SDS011;5592;49.234;7.268;2023-05-09T13:59:33;2.50;;;2.00;;
11078;SDS011;5592;49.234;7.268;2023-05-09T14:01:59;1.70;;;1.47;;
11078;SDS011;5592;49.234;7.268;2023-05-09T14:04:25;3.60;;;2.37;;
11078;SDS011;5592;49.234;7.268;2023-05-09T14:06:52;4.70;;;1.90;;
11078;SDS011;5592;49.234;7.268;2023-05-09T14:09:18;2.67;;;1.90;;
11078;SDS011;5592;49.234;7.268;2023-05-09T14:11:46;2.17;;;1.70;;
11078;SDS011;5592;49.234;7.268;2023-05-09T14:14:16;3.17;;;2.00;;
11078;SDS011;5592;49.234;7.268;2023-05-09T14:16:42;2.80;;;1.90;;
11078;SDS011;5592;49.234;7.268;2023-05-09T14:19:07;2.50;;;1.90;;
11078;SDS011;5592;49.234;7.268;2023-05-09T14:21:33;2.23;;;2.03;;
11078;SDS011;5592;49.234;7.268;2023-05-09T14:23:59;2.57;;;1.67;;
11078;SDS011;5592;49.234;7.268;2023-05-09T14:26:25;2.07;;;1.97;;
11078;SDS011;5592;49.234;7.268;2023-05-09T14:28:51;2.37;;;1.90;;
11078;SDS011;5592;49.234;7.268;2023-05-09T14:31:17;2.17;;;1.77;;
11078;SDS011;5592;49.234;7.268;2023-05-09T14:33:43;3.43;;;2.03;;
11078;SDS011;5592;49.234;7.268;2023-05-09T14:36:08;2.57;;;2.30;;
11078;SDS011;5592;49.234;7.268;2023-05-09T14:38:35;4.37;;;2.20;;
11078;SDS011;5592;49.234;7.268;2023-05-09T14:41:07;2.13;;;1.93;;
11078;SDS011;5592;49.234;7.268;2023-05-09T14:43:33;2.20;;;1.83;;
11078;SDS011;5592;49.234;7.268;2023-05-09T14:45:58;4.10;;;2.43;;
11078;SDS011;5592;49.234;7.268;2023-05-09T14:48:24;2.40;;;2.20;;
11078;SDS011;5592;49.234;7.268;2023-05-09T14:50:50;5.10;;;3.03;;
11078;SDS011;5592;49.234;7.268;2023-05-09T14:53:21;6.83;;;2.10;;
11078;SDS011;5592;49.234;7.268;2023-05-09T14:55:48;2.50;;;2.30;;
11078;SDS011;5592;49.234;7.268;2023-05-09T14:58:14;2.60;;;2.33;;
11078;SDS011;5592;49.234;7.268;2023-05-09T15:00:41;3.20;;;2.20;;
11078;SDS011;5592;49.234;7.268;2023-05-09T15:03:08;5.43;;;2.33;;
11078;SDS011;5592;49.234;7.268;2023-05-09T15:05:34;2.50;;;2.30;;
11078;SDS011;5592;49.234;7.268;2023-05-09T15:08:00;3.50;;;2.90;;
11078;SDS011;5592;49.234;7.268;2023-05-09T15:10:26;4.23;;;2.10;;